»·PEaware :: PSV265 NTAA-KLAX

PSV265 :: NTAA-KLAX

FLIGHT INFORMATION

Flight Status: Arrived
Operator:
Power Set Virtual (website)
More flights by this operator :: More flights under this callsign
Pilot: Scott L. (17677)
Aircraft: BOEING 767-300
(B763)
More flights by this aircraft type
Origin: NTAA Faa'a Intl
French Polynesia
Destination: KLAX Los Angeles Intl
United States
More flights between these airports :: More routes between these airports
Route: IKELO4E IKELO 10S147W/N0464F350 05S145W 00N143W 0330N14145W 10N138W 1500N13430W/N0454F370 20N131W 25N127W 30N123W FICKY GOATZ1
File this flight plan on PilotEdge
Remarks: RMK / SIMBRIEF
Altitude:
(Current/Filed)
33,000ft
Speed:
(Current/Filed)
468kts
Departed: 22-Dec-20 11:16 AM
Arrived: 22-Dec-20 05:35 PM
Distance/Time
Traveled:
3568nm/6:19
Distance/Time
To Go:
Arrived

Flight Plot

Page will automatically refresh every two minutes.

Flight plan parsing failed; only flown route is shown


Map Options




Map Legend


Flown Route
Filed Route
Departure Airport
Arrival Airport
Navaid (VOR, NDB)
Fix

Horizontal Profiles

Position Reports

Time Latitude Longitude Heading Altitude Ground
Speed
22-Dec-20 11:14 -2.623945 -143.574869 18 34918ft 508kts
22-Dec-20 11:15 -2.494839 -143.515678 18 34947ft 507kts
22-Dec-20 11:16 -2.365777 -143.456525 18 34948ft 508kts
22-Dec-20 11:17 -2.236929 -143.397480 18 34949ft 508kts
22-Dec-20 11:18 -2.108002 -143.338411 18 34933ft 508kts
22-Dec-20 11:19 -1.978987 -143.279317 18 34935ft 508kts
22-Dec-20 11:20 -1.849978 -143.220229 18 34934ft 508kts
22-Dec-20 11:21 -1.720688 -143.161022 18 34935ft 508kts
22-Dec-20 11:22 -1.591659 -143.101950 18 34937ft 508kts
22-Dec-20 11:23 -1.462347 -143.042751 18 34938ft 508kts
22-Dec-20 11:24 -1.333135 -142.983608 18 34939ft 508kts
22-Dec-20 11:25 -1.204226 -142.924611 18 34941ft 508kts
22-Dec-20 11:26 -1.074557 -142.865271 18 34942ft 508kts
22-Dec-20 11:27 -0.944616 -142.805815 18 34943ft 511kts
22-Dec-20 11:28 -0.814932 -142.746473 18 34942ft 511kts
22-Dec-20 11:29 -0.685403 -142.687213 18 34943ft 511kts
22-Dec-20 11:30 -0.557463 -142.628681 18 34944ft 511kts
22-Dec-20 11:31 -0.428084 -142.569493 18 34946ft 511kts
22-Dec-20 11:32 -0.297750 -142.509872 18 34947ft 511kts
22-Dec-20 11:33 -0.167602 -142.450335 18 34948ft 511kts
22-Dec-20 11:34 -0.036803 -142.390502 18 34950ft 511kts
22-Dec-20 11:35 0.089658 -142.332657 18 34933ft 510kts
22-Dec-20 11:36 0.217352 -142.274248 18 34934ft 511kts
22-Dec-20 11:37 0.345015 -142.215850 18 34935ft 511kts
22-Dec-20 11:38 0.473414 -142.157114 18 34936ft 511kts
22-Dec-20 11:39 0.603114 -142.097780 18 34936ft 511kts
22-Dec-20 11:40 0.732562 -142.038558 18 34939ft 511kts
22-Dec-20 11:41 0.860789 -141.979890 18 34940ft 511kts
22-Dec-20 11:42 0.990342 -141.920610 18 34941ft 511kts
22-Dec-20 11:43 1.121248 -141.860708 18 34940ft 516kts
22-Dec-20 11:44 1.252982 -141.800421 18 34941ft 516kts
22-Dec-20 11:45 1.385323 -141.739851 18 34943ft 516kts
22-Dec-20 11:46 1.516462 -141.679821 18 34944ft 516kts
22-Dec-20 11:47 1.647203 -141.619965 18 34946ft 516kts
22-Dec-20 11:48 1.777916 -141.560113 18 34947ft 516kts
22-Dec-20 11:49 1.908563 -141.500281 18 34949ft 516kts
22-Dec-20 11:50 2.040450 -141.439871 18 34950ft 516kts
22-Dec-20 11:51 2.172337 -141.379459 18 34948ft 516kts
22-Dec-20 11:52 2.303538 -141.319340 18 34933ft 516kts
22-Dec-20 11:53 2.435126 -141.259035 18 34934ft 516kts
22-Dec-20 11:54 2.563532 -141.200175 18 34935ft 516kts
22-Dec-20 11:55 2.694909 -141.139940 18 34937ft 516kts
22-Dec-20 11:56 2.826241 -141.079707 18 34938ft 515kts
22-Dec-20 11:57 2.956536 -141.019945 18 34941ft 517kts
22-Dec-20 11:58 3.089291 -140.962183 16 34942ft 518kts
22-Dec-20 11:59 3.221217 -140.906349 16 34940ft 515kts
22-Dec-20 12:00 3.353238 -140.850436 16 34939ft 514kts
22-Dec-20 12:01 3.484678 -140.794753 16 34942ft 514kts
22-Dec-20 12:02 3.617454 -140.738491 16 34969ft 514kts
22-Dec-20 12:03 3.748894 -140.682773 16 34973ft 514kts
22-Dec-20 12:04 3.881097 -140.626710 16 34974ft 514kts
22-Dec-20 12:05 3.978694 -140.585316 16 34976ft 514kts
22-Dec-20 12:06 4.147081 -140.513871 16 34973ft 514kts
22-Dec-20 12:07 4.279098 -140.457824 16 34973ft 513kts
22-Dec-20 12:08 4.412404 -140.401222 16 34975ft 513kts
22-Dec-20 12:09 4.545711 -140.344593 16 34969ft 515kts
22-Dec-20 12:10 4.678141 -140.288309 16 34963ft 514kts
22-Dec-20 12:11 4.810217 -140.232157 16 34962ft 514kts
22-Dec-20 12:12 4.943429 -140.175496 16 34964ft 514kts
22-Dec-20 12:14 5.077099 -140.118630 16 34968ft 516kts
22-Dec-20 12:15 5.210881 -140.061659 17 34963ft 516kts
22-Dec-20 12:16 5.344190 -140.004884 17 34965ft 517kts
22-Dec-20 12:17 5.477618 -139.948026 17 34967ft 515kts
22-Dec-20 12:18 5.611241 -139.891058 17 34968ft 516kts
22-Dec-20 12:19 5.744631 -139.834165 17 34969ft 516kts
22-Dec-20 12:20 5.878425 -139.777068 17 34972ft 516kts
22-Dec-20 12:21 6.011247 -139.720354 17 34973ft 516kts
22-Dec-20 12:22 6.144827 -139.663289 17 34969ft 516kts
22-Dec-20 12:23 6.278691 -139.606068 17 34972ft 516kts
22-Dec-20 12:24 6.411672 -139.549200 17 34973ft 517kts
22-Dec-20 12:25 6.545328 -139.491997 17 34974ft 516kts
22-Dec-20 12:26 6.678366 -139.435037 17 34976ft 516kts
22-Dec-20 12:27 6.811337 -139.378070 17 34978ft 517kts
22-Dec-20 12:28 6.943309 -139.321523 18 34964ft 514kts
22-Dec-20 12:29 7.075348 -139.264879 20 34964ft 505kts
22-Dec-20 12:29 7.184335 -139.218081 20 34962ft 507kts
22-Dec-20 12:31 7.336826 -139.152591 20 34963ft 504kts
22-Dec-20 12:32 7.466738 -139.096764 20 34965ft 502kts
22-Dec-20 12:32 7.574359 -139.050484 20 34966ft 499kts
22-Dec-20 12:33 7.702506 -138.995346 20 34966ft 497kts
22-Dec-20 12:35 7.850997 -138.931406 21 34967ft 495kts
22-Dec-20 12:35 7.956770 -138.885831 21 34967ft 495kts
22-Dec-20 12:36 8.082030 -138.831827 21 34968ft 495kts
22-Dec-20 12:37 8.209379 -138.776888 21 34966ft 495kts
22-Dec-20 12:38 8.336291 -138.722097 21 34967ft 495kts
22-Dec-20 12:39 8.463075 -138.667321 21 34968ft 495kts
22-Dec-20 12:40 8.589717 -138.612568 21 35056ft 495kts
22-Dec-20 12:41 8.717156 -138.557429 21 35121ft 494kts
22-Dec-20 12:42 8.843529 -138.502711 21 35122ft 494kts
22-Dec-20 12:43 8.972185 -138.446963 21 35122ft 494kts
22-Dec-20 12:44 9.099873 -138.391608 22 35122ft 494kts
22-Dec-20 12:45 9.226834 -138.336501 22 35117ft 493kts
22-Dec-20 12:46 9.353395 -138.281528 22 35118ft 493kts
22-Dec-20 12:47 9.479847 -138.226564 22 35118ft 493kts
22-Dec-20 12:48 9.606474 -138.171480 22 35118ft 493kts
22-Dec-20 12:49 9.732386 -138.116663 22 35119ft 493kts
22-Dec-20 12:50 9.858932 -138.061523 22 35119ft 493kts
22-Dec-20 12:51 9.984330 -138.006217 27 35117ft 493kts
22-Dec-20 12:53 10.114113 -137.910690 37 35118ft 494kts
22-Dec-20 12:53 10.205146 -137.839568 37 35118ft 494kts
22-Dec-20 12:54 10.314509 -137.753945 37 35640ft 493kts
22-Dec-20 12:55 10.423756 -137.668327 37 36053ft 492kts
22-Dec-20 12:56 10.532120 -137.583324 37 36346ft 492kts
22-Dec-20 12:57 10.641056 -137.497794 37 36562ft 492kts
22-Dec-20 12:58 10.749149 -137.412846 37 36731ft 492kts
22-Dec-20 12:59 10.857544 -137.327584 37 36866ft 491kts
22-Dec-20 13:00 10.966035 -137.242193 38 36899ft 493kts
22-Dec-20 13:01 11.074691 -137.156559 39 37017ft 493kts
22-Dec-20 13:02 11.183161 -137.070972 39 37078ft 493kts
22-Dec-20 13:03 11.292595 -136.984557 39 37088ft 493kts
22-Dec-20 13:04 11.401501 -136.898504 39 37162ft 492kts
22-Dec-20 13:05 11.509384 -136.813128 39 37119ft 488kts
22-Dec-20 13:06 11.616511 -136.728283 39 37119ft 489kts
22-Dec-20 13:12 12.254633 -136.221118 40 37117ft 489kts
22-Dec-20 13:13 12.362884 -136.134769 40 37118ft 489kts
22-Dec-20 13:14 12.470764 -136.048626 40 37118ft 489kts
22-Dec-20 13:15 12.578844 -135.962227 40 37119ft 489kts
22-Dec-20 13:16 12.687481 -135.875289 40 37120ft 489kts
22-Dec-20 13:17 12.795759 -135.788536 39 37119ft 489kts
22-Dec-20 13:18 12.903922 -135.701782 40 37121ft 489kts
22-Dec-20 13:19 13.012347 -135.614709 39 37120ft 490kts
22-Dec-20 13:20 13.120382 -135.527852 38 37115ft 492kts
22-Dec-20 13:21 13.229100 -135.440379 39 37117ft 494kts
22-Dec-20 13:22 13.338731 -135.352041 39 37119ft 497kts
22-Dec-20 13:23 13.448335 -135.263622 39 37116ft 498kts
22-Dec-20 13:24 13.558217 -135.174870 39 37121ft 498kts
22-Dec-20 13:25 13.668051 -135.086050 39 37118ft 499kts
22-Dec-20 13:26 13.778527 -134.996599 38 37120ft 502kts
22-Dec-20 13:27 13.889425 -134.906693 38 37119ft 505kts
22-Dec-20 13:28 14.001084 -134.816069 37 37124ft 509kts
22-Dec-20 13:29 14.112860 -134.725231 37 37122ft 513kts
22-Dec-20 13:30 14.226047 -134.633128 37 37120ft 515kts
22-Dec-20 13:31 14.339506 -134.540677 37 37122ft 516kts
22-Dec-20 13:32 14.452463 -134.448512 37 37121ft 516kts
22-Dec-20 13:33 14.566052 -134.355707 37 37125ft 516kts
22-Dec-20 13:34 14.679356 -134.263014 38 37118ft 516kts
22-Dec-20 13:35 14.792374 -134.170425 38 37120ft 516kts
22-Dec-20 13:36 14.904919 -134.078100 38 37121ft 516kts
22-Dec-20 13:37 15.019674 -133.988798 28 37131ft 518kts
22-Dec-20 13:38 15.146419 -133.914739 28 37115ft 522kts
22-Dec-20 13:39 15.273077 -133.840847 28 37116ft 521kts
22-Dec-20 13:40 15.399737 -133.766862 28 37119ft 521kts
22-Dec-20 13:41 15.526516 -133.692707 28 37121ft 522kts
22-Dec-20 13:42 15.653205 -133.618499 28 37122ft 521kts
22-Dec-20 13:43 15.779847 -133.544208 28 37124ft 522kts
22-Dec-20 13:44 15.906067 -133.470056 28 37125ft 522kts
22-Dec-20 13:45 16.033540 -133.395058 28 37129ft 521kts
22-Dec-20 13:46 16.160277 -133.320390 28 37117ft 521kts
22-Dec-20 13:47 16.286698 -133.245799 28 37121ft 521kts
22-Dec-20 13:48 16.413500 -133.170855 28 37126ft 521kts
22-Dec-20 13:49 16.539769 -133.096125 28 37127ft 519kts
22-Dec-20 13:50 16.665885 -133.021368 27 37128ft 517kts
22-Dec-20 13:51 16.791006 -132.947093 27 37130ft 516kts
22-Dec-20 13:52 16.915998 -132.872786 27 37133ft 516kts
22-Dec-20 13:53 17.040980 -132.798369 27 37133ft 516kts
22-Dec-20 13:54 17.166351 -132.723597 27 37128ft 516kts
22-Dec-20 13:55 17.291297 -132.648961 27 37129ft 516kts
22-Dec-20 13:56 17.416096 -132.574293 27 37131ft 516kts
22-Dec-20 13:58 17.541164 -132.499348 27 37132ft 516kts
22-Dec-20 13:59 17.666351 -132.424212 27 37134ft 516kts
22-Dec-20 14:00 17.791080 -132.349228 28 37135ft 516kts
22-Dec-20 14:01 17.916113 -132.273947 28 37129ft 516kts
22-Dec-20 14:02 18.041072 -132.198577 28 37130ft 516kts
22-Dec-20 14:03 18.166057 -132.123064 28 37124ft 515kts
22-Dec-20 14:04 18.290599 -132.047702 28 37125ft 516kts
22-Dec-20 14:05 18.413740 -131.973063 28 37127ft 516kts
22-Dec-20 14:06 18.538807 -131.897126 28 37129ft 516kts
22-Dec-20 14:07 18.663253 -131.821434 27 37113ft 515kts
22-Dec-20 14:08 18.787657 -131.745640 27 37113ft 515kts
22-Dec-20 14:09 18.912705 -131.669317 27 37113ft 517kts
22-Dec-20 14:10 19.038127 -131.592610 25 37119ft 523kts
22-Dec-20 14:11 19.164854 -131.515037 25 37114ft 528kts
22-Dec-20 14:12 19.292464 -131.436742 25 37116ft 527kts
22-Dec-20 14:12 19.398415 -131.371623 25 37117ft 527kts
22-Dec-20 14:13 19.525369 -131.293467 25 37105ft 527kts
22-Dec-20 14:15 19.673817 -131.201904 25 37108ft 527kts
22-Dec-20 14:16 19.800944 -131.123329 25 37110ft 527kts
22-Dec-20 14:16 19.906538 -131.057948 25 37111ft 527kts
22-Dec-20 14:17 20.032096 -130.975113 31 37117ft 529kts
22-Dec-20 14:18 20.151840 -130.883653 32 37109ft 528kts
22-Dec-20 14:19 20.271139 -130.792055 33 37110ft 525kts
22-Dec-20 14:20 20.390035 -130.700570 33 37111ft 526kts
22-Dec-20 14:21 20.508990 -130.608869 33 37114ft 526kts
22-Dec-20 14:22 20.627304 -130.517477 33 37116ft 526kts
22-Dec-20 14:23 20.743039 -130.427908 33 37117ft 525kts
22-Dec-20 14:24 20.861502 -130.336051 33 37109ft 525kts
22-Dec-20 14:25 20.980270 -130.243778 33 37109ft 526kts
22-Dec-20 14:26 21.099472 -130.150970 33 37112ft 532kts
22-Dec-20 14:27 21.219919 -130.057010 33 37106ft 535kts
22-Dec-20 14:28 21.340823 -129.962496 33 37108ft 535kts
22-Dec-20 14:29 21.461458 -129.867991 33 37111ft 535kts
22-Dec-20 14:30 21.582138 -129.773258 33 37112ft 535kts
22-Dec-20 14:31 21.702639 -129.678464 33 37116ft 535kts
22-Dec-20 14:32 21.823323 -129.583323 33 37117ft 535kts
22-Dec-20 14:33 21.943724 -129.488201 33 37120ft 535kts
22-Dec-20 14:34 22.064325 -129.392714 33 37123ft 535kts
22-Dec-20 14:35 22.184690 -129.297216 33 37103ft 535kts
22-Dec-20 14:36 22.305046 -129.201513 33 37104ft 535kts
22-Dec-20 14:37 22.424916 -129.105990 33 37108ft 536kts
22-Dec-20 14:38 22.544745 -129.010275 33 37109ft 529kts
22-Dec-20 14:39 22.662745 -128.915826 33 37110ft 524kts
22-Dec-20 14:40 22.779886 -128.821866 32 37114ft 522kts
22-Dec-20 14:41 22.897461 -128.727348 33 37114ft 523kts
22-Dec-20 14:42 23.015046 -128.632621 33 37119ft 531kts
22-Dec-20 14:43 23.134681 -128.536000 33 37111ft 535kts
22-Dec-20 14:44 23.254484 -128.439041 33 37114ft 535kts
22-Dec-20 14:45 23.374017 -128.342076 33 37112ft 535kts
22-Dec-20 14:46 23.494090 -128.244442 33 37106ft 535kts
22-Dec-20 14:47 23.613518 -128.147111 33 37109ft 535kts
22-Dec-20 14:48 23.732752 -128.049713 33 37110ft 536kts
22-Dec-20 14:49 23.852894 -127.951337 33 37113ft 536kts
22-Dec-20 14:50 23.971922 -127.853639 33 37117ft 535kts
22-Dec-20 14:51 24.092255 -127.754652 33 37119ft 536kts
22-Dec-20 14:52 24.211921 -127.655965 33 37111ft 535kts
22-Dec-20 14:53 24.331767 -127.556890 33 37115ft 535kts
22-Dec-20 14:54 24.451437 -127.457721 33 37117ft 535kts
22-Dec-20 14:55 24.570543 -127.358775 33 37119ft 535kts
22-Dec-20 14:56 24.689413 -127.259792 34 37107ft 535kts
22-Dec-20 14:57 24.808380 -127.160473 34 37110ft 534kts
22-Dec-20 14:58 24.926054 -127.061991 33 37112ft 525kts
22-Dec-20 14:59 25.044022 -126.966503 30 37115ft 523kts
22-Dec-20 15:00 25.165602 -126.874427 30 37111ft 531kts
22-Dec-20 15:01 25.287337 -126.781836 30 37111ft 530kts
22-Dec-20 15:02 25.409509 -126.688692 30 37113ft 530kts
22-Dec-20 15:03 25.531715 -126.595289 30 37116ft 531kts
22-Dec-20 15:04 25.653845 -126.501703 30 37117ft 530kts
22-Dec-20 15:05 25.775363 -126.408352 30 37119ft 530kts
22-Dec-20 15:06 25.896945 -126.314713 30 37097ft 530kts
22-Dec-20 15:07 26.018537 -126.220832 30 37101ft 530kts
22-Dec-20 15:08 26.140072 -126.126749 30 37094ft 530kts
22-Dec-20 15:09 26.262091 -126.032045 30 37097ft 530kts
22-Dec-20 15:10 26.383728 -125.937395 30 37099ft 530kts
22-Dec-20 15:11 26.505107 -125.842696 30 37102ft 530kts
22-Dec-20 15:12 26.626612 -125.747644 30 37105ft 530kts
22-Dec-20 15:13 26.748237 -125.652250 30 37107ft 530kts
22-Dec-20 15:14 26.869347 -125.557010 30 37109ft 530kts
22-Dec-20 15:15 26.991181 -125.460953 30 37112ft 536kts
22-Dec-20 15:16 27.114233 -125.363654 31 37108ft 539kts
22-Dec-20 15:17 27.237464 -125.265948 31 37093ft 538kts
22-Dec-20 15:18 27.360249 -125.168333 31 37096ft 538kts
22-Dec-20 15:19 27.483275 -125.070246 31 37096ft 538kts
22-Dec-20 15:20 27.605657 -124.972396 31 37101ft 535kts
22-Dec-20 15:21 27.726870 -124.875220 30 37102ft 530kts
22-Dec-20 15:22 27.847768 -124.778033 30 37104ft 526kts
22-Dec-20 15:23 27.967437 -124.681566 30 37107ft 527kts
22-Dec-20 15:24 28.087364 -124.584610 30 37112ft 527kts
22-Dec-20 15:25 28.207386 -124.487315 30 37105ft 526kts
22-Dec-20 15:26 28.326999 -124.390075 30 37110ft 527kts
22-Dec-20 15:27 28.445794 -124.293224 31 37095ft 527kts
22-Dec-20 15:28 28.565205 -124.195595 31 37097ft 527kts
22-Dec-20 15:29 28.684141 -124.098076 31 37099ft 527kts
22-Dec-20 15:30 28.803122 -124.000250 31 37098ft 527kts
22-Dec-20 15:31 28.922524 -123.901783 31 37100ft 527kts
22-Dec-20 15:32 29.041615 -123.803280 30 37107ft 531kts
22-Dec-20 15:33 29.161786 -123.703605 29 37104ft 535kts
22-Dec-20 15:34 29.282270 -123.603383 29 37107ft 535kts
22-Dec-20 15:35 29.402861 -123.502760 29 37108ft 534kts
22-Dec-20 15:36 29.523570 -123.401742 29 37111ft 535kts
22-Dec-20 15:37 29.644140 -123.300529 30 37097ft 535kts
22-Dec-20 15:39 29.766165 -123.197784 30 37098ft 535kts
22-Dec-20 15:40 29.887468 -123.095327 30 37103ft 534kts
22-Dec-20 15:41 30.006494 -122.992666 35 37103ft 534kts
22-Dec-20 15:42 30.119712 -122.878883 35 37101ft 530kts
22-Dec-20 15:43 30.196999 -122.800548 35 37103ft 530kts
22-Dec-20 15:44 30.196999 -122.800548 35 37103ft 530kts
22-Dec-20 15:45 30.196999 -122.800548 35 37103ft 530kts
22-Dec-20 15:46 30.196999 -122.800548 35 37103ft 530kts
22-Dec-20 15:47 30.196999 -122.800548 35 37103ft 530kts
22-Dec-20 15:48 30.196999 -122.800548 35 37103ft 530kts
22-Dec-20 15:49 30.196999 -122.800548 35 37103ft 530kts
22-Dec-20 15:50 30.196999 -122.800548 35 37103ft 530kts
22-Dec-20 15:51 30.196999 -122.800548 35 37103ft 530kts
22-Dec-20 15:52 30.196999 -122.800548 35 37103ft 530kts
22-Dec-20 15:53 30.196999 -122.800548 35 37103ft 530kts
22-Dec-20 15:53 30.196999 -122.800548 35 37103ft 530kts
22-Dec-20 15:55 30.196999 -122.800548 35 37103ft 530kts
22-Dec-20 15:56 30.196999 -122.800548 35 37103ft 530kts
22-Dec-20 15:56 30.196999 -122.800548 35 37103ft 530kts
22-Dec-20 15:58 30.196999 -122.800548 35 37103ft 530kts
22-Dec-20 15:58 30.196999 -122.800548 35 37103ft 530kts
22-Dec-20 15:59 30.196999 -122.800548 35 37103ft 530kts
22-Dec-20 16:00 30.196999 -122.800548 35 37103ft 530kts
22-Dec-20 16:01 30.196999 -122.800548 35 37103ft 530kts
22-Dec-20 16:02 30.196999 -122.800548 35 37103ft 530kts
22-Dec-20 16:03 30.196999 -122.800548 35 37103ft 530kts
22-Dec-20 16:05 30.196999 -122.800548 35 37103ft 530kts
22-Dec-20 16:05 30.196999 -122.800548 35 37103ft 530kts
22-Dec-20 16:06 30.196999 -122.800548 35 37103ft 530kts
22-Dec-20 16:07 30.196999 -122.800548 35 37103ft 530kts
22-Dec-20 16:08 30.196999 -122.800548 35 37103ft 530kts
22-Dec-20 16:09 30.196999 -122.800548 35 37103ft 530kts
22-Dec-20 16:10 30.196999 -122.800548 35 37103ft 530kts
22-Dec-20 16:11 30.196999 -122.800548 35 37103ft 530kts
22-Dec-20 16:12 30.196999 -122.800548 35 37103ft 530kts
22-Dec-20 16:13 30.196999 -122.800548 35 37103ft 530kts
22-Dec-20 16:14 30.196999 -122.800548 35 37103ft 530kts
22-Dec-20 16:15 30.196999 -122.800548 35 37103ft 530kts
22-Dec-20 16:16 30.196999 -122.800548 35 37103ft 530kts
22-Dec-20 16:17 30.196999 -122.800548 35 37103ft 530kts
22-Dec-20 16:18 30.196999 -122.800548 35 37103ft 530kts
22-Dec-20 16:19 30.196999 -122.800548 35 37103ft 530kts
22-Dec-20 16:20 30.196999 -122.800548 35 37103ft 530kts
22-Dec-20 16:21 30.196999 -122.800548 35 37103ft 530kts
22-Dec-20 16:22 30.196999 -122.800548 35 37103ft 530kts
22-Dec-20 16:23 30.196999 -122.800548 35 37103ft 530kts
22-Dec-20 16:24 30.196999 -122.800548 35 37103ft 530kts
22-Dec-20 16:25 30.196999 -122.800548 35 37103ft 530kts
22-Dec-20 16:26 30.196999 -122.800548 35 37103ft 530kts
22-Dec-20 16:27 30.196999 -122.800548 35 37103ft 530kts
22-Dec-20 16:28 30.196999 -122.800548 35 37103ft 530kts
22-Dec-20 16:29 30.196999 -122.800548 35 37103ft 530kts
22-Dec-20 16:30 30.196999 -122.800548 35 37103ft 530kts
22-Dec-20 16:31 30.196999 -122.800548 35 37103ft 530kts
22-Dec-20 16:32 30.196999 -122.800548 35 37103ft 530kts
22-Dec-20 16:33 30.196999 -122.800548 35 37103ft 530kts
22-Dec-20 16:34 30.196999 -122.800548 35 37103ft 530kts
22-Dec-20 16:35 30.196999 -122.800548 35 37103ft 530kts
22-Dec-20 16:36 30.196999 -122.800548 35 37103ft 530kts
22-Dec-20 16:37 30.196999 -122.800548 35 37103ft 530kts
22-Dec-20 16:38 30.196999 -122.800548 35 37103ft 530kts
22-Dec-20 16:39 30.196999 -122.800548 35 37103ft 530kts
22-Dec-20 16:40 30.196999 -122.800548 35 37103ft 530kts
22-Dec-20 16:41 30.196999 -122.800548 35 37103ft 530kts
22-Dec-20 16:42 30.196999 -122.800548 35 37103ft 530kts
22-Dec-20 16:43 30.229203 -122.767842 35 37103ft 531kts
22-Dec-20 16:44 30.341651 -122.653395 35 37105ft 534kts
22-Dec-20 16:45 30.455087 -122.537573 35 37108ft 533kts
22-Dec-20 16:46 30.567002 -122.422933 35 37110ft 533kts
22-Dec-20 16:47 30.679056 -122.307788 35 37095ft 533kts
22-Dec-20 16:48 30.791354 -122.192014 35 37098ft 534kts
22-Dec-20 16:49 30.903579 -122.075934 35 37100ft 534kts
22-Dec-20 16:50 31.015573 -121.959703 34 37101ft 536kts
22-Dec-20 16:51 31.128609 -121.842037 34 37101ft 537kts
22-Dec-20 16:52 31.240616 -121.725038 34 37105ft 537kts
22-Dec-20 16:53 31.353080 -121.607177 34 37107ft 538kts
22-Dec-20 16:54 31.464995 -121.489487 34 37110ft 537kts
22-Dec-20 16:55 31.566978 -121.359248 56 37120ft 554kts
22-Dec-20 16:56 31.627597 -121.190257 65 37097ft 559kts
22-Dec-20 16:57 31.686120 -121.020505 64 37100ft 558kts
22-Dec-20 16:58 31.744384 -120.850819 64 37104ft 557kts
22-Dec-20 16:59 31.802340 -120.681177 64 37106ft 558kts
22-Dec-20 17:00 31.860325 -120.510534 64 37111ft 557kts
22-Dec-20 17:01 31.917901 -120.340222 64 37109ft 558kts
22-Dec-20 17:02 32.003430 -120.191980 40 37097ft 540kts
22-Dec-20 17:03 32.105868 -120.061878 40 37100ft 539kts
22-Dec-20 17:04 32.208587 -119.931689 40 37102ft 539kts
22-Dec-20 17:05 32.310923 -119.801556 40 37109ft 541kts
22-Dec-20 17:06 32.410939 -119.673910 39 36691ft 519kts
22-Dec-20 17:07 32.510000 -119.547063 39 36152ft 522kts
22-Dec-20 17:08 32.608967 -119.419885 39 35625ft 523kts
22-Dec-20 17:09 32.707933 -119.292270 40 35054ft 525kts
22-Dec-20 17:10 32.807817 -119.162975 40 33727ft 527kts
22-Dec-20 17:11 32.906589 -119.034672 40 32120ft 521kts
22-Dec-20 17:12 33.004855 -118.906611 40 29785ft 524kts
22-Dec-20 17:13 33.102612 -118.778689 39 26791ft 515kts
22-Dec-20 17:14 33.197161 -118.653778 42 23845ft 503kts
22-Dec-20 17:15 33.285833 -118.528902 42 20814ft 457kts
22-Dec-20 17:16 33.335037 -118.407869 79 17852ft 414kts
22-Dec-20 17:17 33.332780 -118.275788 90 14539ft 377kts
22-Dec-20 17:18 33.326255 -118.158247 90 13974ft 320kts
22-Dec-20 17:19 33.353099 -118.062079 42 14011ft 307kts
22-Dec-20 17:20 33.412316 -117.988014 41 13994ft 305kts
22-Dec-20 17:22 33.481229 -117.937868 353 13239ft 286kts
22-Dec-20 17:23 33.546064 -117.985213 330 11193ft 277kts
22-Dec-20 17:24 33.620784 -118.006168 353 9084ft 274kts
22-Dec-20 17:25 33.691461 -118.025745 338 7015ft 250kts
22-Dec-20 17:26 33.753104 -118.050627 338 6589ft 237kts
22-Dec-20 17:27 33.818066 -118.076934 338 5039ft 252kts
22-Dec-20 17:28 33.878889 -118.101553 338 4978ft 213kts
22-Dec-20 17:29 33.928085 -118.136318 323 3892ft 202kts
22-Dec-20 17:30 33.958450 -118.182449 260 3393ft 181kts
22-Dec-20 17:31 33.952327 -118.235628 261 2453ft 137kts
22-Dec-20 17:32 33.947496 -118.282681 261 1761ft 141kts
22-Dec-20 17:33 33.942742 -118.329699 261 1012ft 140kts
22-Dec-20 17:34 33.937991 -118.376510 262 257ft 139kts
22-Dec-20 17:35 33.934875 -118.406594 266 114ft 34kts
22-Dec-20 17:36 33.935372 -118.411788 284 114ft 0kts
22-Dec-20 17:37 33.937347 -118.412678 15 114ft 0kts
22-Dec-20 17:37 33.937723 -118.411191 84 114ft 20kts
22-Dec-20 17:38 33.938580 -118.401514 83 114ft 27kts
22-Dec-20 17:40 33.941506 -118.400415 47 114ft 0kts

Navigation Log

Ident Type
Flight plan parsing failed, navigation log unavailable